Terminal Aerodrome Forecast
Issued by NWS Wilmington, NC

Home | Current Version | Previous Version | Text Only | Print | Product List | Glossary On
Versions: 1 2 3 4 5 6 7 8 9 10 11 12 13 14 15
856
FTUS42 KILM 121730
TAFFLO
TAF
KFLO 121730Z 1218/1318 04008KT P6SM SCT015 OVC035
      TEMPO 1218/1220 6SM -RA
     FM122000 34005KT P6SM OVC025
     FM130100 29004KT P6SM SCT025 BKN250
     FM131200 33008KT P6SM SKC
     FM131400 35014G24KT P6SM SKC=

USA.gov is the U.S. government's official web portal to all federal, state and local government web resources and services.